Time;durP1;ratioP1;P1;durP2;ratioP2;P2;SDS_P1;SDS_P2;PMS_P1;PMS_P2;Temp;Humidity;BMP_temperature;BMP_pressure;BME280_temperature;BME280_humidity;BME280_pressure;Samples;Min_cycle;Max_cycle;Signal;HPM_P1;HPM_P2
2022/10/23 00:01:11;;;;;;;1.27;0.70;;;;;;;12.41;100.00;99221.13;4905996;29;20163;-57
2022/10/23 00:04:10;;;;;;;4.80;1.40;;;;;;;12.36;100.00;99220.59;4897640;29;20115;-55
2022/10/23 00:06:57;;;;;;;2.65;0.90;;;;;;;12.30;100.00;99222.72;4902308;29;20139;-58
2022/10/23 00:09:41;;;;;;;3.25;1.02;;;;;;;12.38;100.00;99222.19;4907912;29;20041;-50
2022/10/23 00:12:27;;;;;;;3.17;0.98;;;;;;;12.29;100.00;99228.06;4899398;29;20103;-56
2022/10/23 00:15:13;;;;;;;1.80;1.00;;;;;;;12.26;100.00;99223.84;4902599;29;20060;-56
2022/10/23 00:17:58;;;;;;;2.83;0.90;;;;;;;12.16;100.00;99225.41;4907711;29;20139;-55
2022/10/23 00:20:42;;;;;;;1.95;1.15;;;;;;;12.21;100.00;99225.13;4902926;29;20064;-51
2022/10/23 00:23:27;;;;;;;2.17;0.98;;;;;;;12.06;100.00;99218.13;4902071;29;20040;-59
2022/10/23 00:26:16;;;;;;;3.53;2.70;;;;;;;11.71;100.00;99221.34;4898607;29;20671;-56
2022/10/23 00:29:00;;;;;;;8.18;2.65;;;;;;;11.54;100.00;99222.44;4904495;29;20044;-58
2022/10/23 00:31:44;;;;;;;5.00;3.35;;;;;;;11.54;100.00;99225.06;4901784;29;20068;-55
2022/10/23 00:34:30;;;;;;;6.70;3.83;;;;;;;11.46;100.00;99222.94;4910793;29;20045;-59
2022/10/23 00:37:14;;;;;;;4.63;3.50;;;;;;;11.46;100.00;99228.19;4902905;29;20048;-56
2022/10/23 00:39:59;;;;;;;5.63;3.85;;;;;;;11.39;100.00;99225.13;4914842;29;20507;-57
2022/10/23 00:42:43;;;;;;;5.82;3.35;;;;;;;11.29;100.00;99226.66;4886753;29;20385;-53
2022/10/23 00:45:32;;;;;;;6.53;4.22;;;;;;;11.26;100.00;99232.13;4900641;29;20056;-54
2022/10/23 00:48:17;;;;;;;6.05;3.63;;;;;;;11.07;100.00;99223.63;4902424;29;20056;-51
2022/10/23 00:51:01;;;;;;;5.53;3.75;;;;;;;11.00;100.00;99230.19;4898002;29;20044;-52
2022/10/23 00:53:50;;;;;;;4.82;3.47;;;;;;;10.94;100.00;99231.44;4902520;29;20045;-52
2022/10/23 00:56:37;;;;;;;5.78;4.20;;;;;;;10.82;100.00;99230.41;4897279;29;20404;-53
2022/10/23 00:59:21;;;;;;;6.75;4.90;;;;;;;10.77;100.00;99231.66;4899675;29;20052;-53
2022/10/23 01:02:06;;;;;;;6.32;4.57;;;;;;;10.79;100.00;99237.63;4909636;29;20164;-51
2022/10/23 01:04:51;;;;;;;6.47;4.70;;;;;;;10.80;100.00;99240.16;4896506;29;20141;-58
2022/10/23 01:08:06;;;;;;;6.57;4.72;;;;;;;10.69;100.00;99238.19;4901546;29;20132;-52
2022/10/23 01:10:57;;;;;;;5.75;4.13;;;;;;;10.62;100.00;99234.28;4898591;29;20139;-52
2022/10/23 01:13:54;;;;;;;6.15;3.97;;;;;;;10.67;100.00;99236.63;4895594;29;20127;-51
2022/10/23 01:16:47;;;;;;;6.38;4.63;;;;;;;10.62;100.00;99238.66;4896496;29;20112;-55
2022/10/23 01:19:38;;;;;;;7.93;4.65;;;;;;;10.46;100.00;99235.19;4882593;29;20559;-54
2022/10/23 01:23:03;;;;;;;6.33;4.17;;;;;;;10.42;100.00;99235.44;4897285;29;20128;-52
2022/10/23 01:26:19;;;;;;;5.82;4.07;;;;;;;10.38;100.00;99229.56;4849472;29;20105;-57
2022/10/23 01:29:36;;;;;;;7.80;4.90;;;;;;;10.42;100.00;99235.44;4850602;29;20049;-54
2022/10/23 01:32:30;;;;;;;7.63;4.60;;;;;;;10.35;100.00;99240.22;4848812;29;20076;-54
2022/10/23 01:35:31;;;;;;;6.95;5.07;;;;;;;10.29;100.00;99238.81;4844828;29;20505;-53
2022/10/23 01:38:30;;;;;;;7.35;5.32;;;;;;;10.32;100.00;99246.50;4828766;29;20053;-55
2022/10/23 01:41:27;;;;;;;9.20;5.40;;;;;;;10.26;100.00;99244.25;4842748;29;20096;-53
2022/10/23 01:44:18;;;;;;;8.02;5.45;;;;;;;10.32;100.00;99251.72;4835945;29;20109;-52
2022/10/23 01:47:06;;;;;;;6.82;4.90;;;;;;;10.21;100.00;99252.38;4849762;29;20057;-54
2022/10/23 01:49:56;;;;;;;8.95;5.95;;;;;;;10.19;100.00;99248.16;4827082;29;20108;-55
2022/10/23 01:52:42;;;;;;;8.05;5.32;;;;;;;10.17;100.00;99263.09;4836324;29;20045;-58
2022/10/23 01:55:28;;;;;;;7.65;5.50;;;;;;;10.19;100.00;99249.00;4828838;29;20049;-51
2022/10/23 01:58:17;;;;;;;7.80;5.25;;;;;;;10.22;100.00;99255.81;4837032;29;20056;-51
2022/10/23 02:01:04;;;;;;;6.90;4.85;;;;;;;10.22;100.00;99251.44;4824319;29;20068;-53
2022/10/23 02:03:54;;;;;;;8.25;5.78;;;;;;;10.23;100.00;99245.25;4879918;29;20079;-51
2022/10/23 02:06:38;;;;;;;8.40;4.70;;;;;;;10.24;100.00;99256.56;4883376;29;20135;-50
2022/10/23 02:09:23;;;;;;;9.10;5.75;;;;;;;10.23;100.00;99260.97;4900393;29;20049;-57
2022/10/23 02:12:17;;;;;;;6.53;5.00;;;;;;;10.27;100.00;99264.25;4896569;29;20055;-54
2022/10/23 02:15:13;;;;;;;7.53;4.53;;;;;;;10.21;100.00;99262.84;4900806;29;20048;-55
2022/10/23 02:18:24;;;;;;;7.53;5.38;;;;;;;10.22;100.00;99258.44;4883724;29;20817;-57
2022/10/23 02:21:20;;;;;;;7.13;5.30;;;;;;;10.27;100.00;99263.41;4884589;29;20059;-57
2022/10/23 02:24:12;;;;;;;6.25;4.65;;;;;;;10.20;100.00;99258.53;4880966;29;20166;-57
2022/10/23 02:27:08;;;;;;;6.28;4.55;;;;;;;10.17;100.00;99253.47;4897746;29;20048;-55
2022/10/23 02:30:03;;;;;;;8.10;5.40;;;;;;;10.19;100.00;99256.84;4902763;29;20139;-57
2022/10/23 02:32:55;;;;;;;8.93;5.15;;;;;;;10.17;100.00;99255.25;4884801;29;20479;-58
2022/10/23 02:35:40;;;;;;;7.25;5.22;;;;;;;10.13;100.00;99251.97;4893510;29;20040;-56
2022/10/23 02:38:40;;;;;;;8.90;5.78;;;;;;;10.16;100.00;99249.19;4894250;29;20132;-51
2022/10/23 02:42:05;;;;;;;9.40;5.70;;;;;;;10.16;100.00;99240.47;4899824;29;20068;-54
2022/10/23 02:44:54;;;;;;;6.75;4.70;;;;;;;10.16;100.00;99248.34;4869635;29;20506;-52
2022/10/23 02:48:00;;;;;;;7.15;4.68;;;;;;;10.18;100.00;99251.72;4883348;29;20354;-54
2022/10/23 02:51:09;;;;;;;6.80;5.20;;;;;;;10.21;100.00;99248.91;4895073;29;20131;-53
2022/10/23 02:54:13;;;;;;;7.70;5.45;;;;;;;10.20;100.00;99258.53;4897147;29;20046;-54
2022/10/23 02:57:14;;;;;;;7.18;4.68;;;;;;;10.21;100.00;99264.63;4879572;29;20060;-54
2022/10/23 03:00:02;;;;;;;6.50;4.90;;;;;;;10.21;100.00;99259.38;4888858;29;20111;-52
2022/10/23 03:02:58;;;;;;;8.13;5.35;;;;;;;10.20;100.00;99252.47;4881508;29;20062;-54
2022/10/23 03:05:46;;;;;;;6.20;4.50;;;;;;;10.22;100.00;99254.06;4890358;29;20775;-54
2022/10/23 03:09:06;;;;;;;7.22;4.07;;;;;;;10.26;100.00;99264.34;4882747;29;20075;-54
2022/10/23 03:11:51;;;;;;;7.25;4.55;;;;;;;10.29;100.00;99267.63;4840554;29;20085;-52
2022/10/23 03:14:36;;;;;;;6.55;4.88;;;;;;;10.16;100.00;99270.13;4832864;29;20136;-56
2022/10/23 03:17:21;;;;;;;7.78;5.05;;;;;;;10.20;100.00;99270.78;4840818;29;20466;-52
2022/10/23 03:20:06;;;;;;;7.25;5.30;;;;;;;10.18;100.00;99268.28;4836404;29;20128;-55
2022/10/23 03:22:51;;;;;;;8.88;5.75;;;;;;;10.10;100.00;99265.25;4842647;29;20046;-54
2022/10/23 03:25:35;;;;;;;8.82;5.70;;;;;;;10.15;100.00;99263.19;4841943;29;20060;-55
2022/10/23 03:28:21;;;;;;;8.40;5.90;;;;;;;10.17;100.00;99266.56;4842948;29;20081;-56
2022/10/23 03:31:05;;;;;;;6.90;5.10;;;;;;;10.17;100.00;99276.19;4841502;29;20068;-56
2022/10/23 03:33:50;;;;;;;9.38;6.07;;;;;;;10.18;100.00;99272.66;4845329;29;20126;-52
2022/10/23 03:36:34;;;;;;;8.23;6.07;;;;;;;10.19;100.00;99275.19;4840897;29;20438;-54
2022/10/23 03:39:21;;;;;;;11.05;5.75;;;;;;;10.13;100.00;99274.69;4845579;29;20054;-59
2022/10/23 03:42:05;;;;;;;8.13;5.65;;;;;;;10.10;100.00;99270.50;4849783;29;20054;-57
2022/10/23 03:44:50;;;;;;;9.18;5.72;;;;;;;10.17;100.00;99287.50;4845810;29;20411;-55
2022/10/23 03:47:39;;;;;;;8.52;5.78;;;;;;;10.03;100.00;99285.72;4889307;29;20131;-57
2022/10/23 03:50:24;;;;;;;8.88;5.70;;;;;;;10.10;100.00;99278.34;4907012;29;20537;-56
2022/10/23 03:53:08;;;;;;;10.18;6.10;;;;;;;10.16;100.00;99272.75;4900831;29;20068;-56
2022/10/23 03:55:53;;;;;;;7.90;5.88;;;;;;;10.15;100.00;99278.91;4902254;29;20045;-55
2022/10/23 03:58:38;;;;;;;9.27;5.75;;;;;;;9.71;100.00;99272.72;4901302;29;20420;-54
2022/10/23 04:01:23;;;;;;;7.32;5.63;;;;;;;9.83;100.00;99276.38;4896164;29;20407;-55
2022/10/23 04:04:08;;;;;;;8.63;5.53;;;;;;;9.82;100.00;99277.31;4909899;29;20040;-56
2022/10/23 04:06:55;;;;;;;8.07;6.20;;;;;;;9.82;100.00;99269.47;4900083;29;20134;-51
2022/10/23 04:09:40;;;;;;;8.32;5.70;;;;;;;9.80;100.00;99276.56;4894299;29;20052;-53
2022/10/23 04:12:25;;;;;;;8.90;6.05;;;;;;;9.64;100.00;99280.06;4885832;29;20459;-55
2022/10/23 04:15:10;;;;;;;9.30;6.35;;;;;;;9.64;100.00;99273.97;4898963;29;20048;-51
2022/10/23 04:17:54;;;;;;;10.52;5.90;;;;;;;9.76;100.00;99267.22;4900328;29;20128;-54
2022/10/23 04:20:39;;;;;;;9.20;5.93;;;;;;;9.77;100.00;99267.13;4870916;29;20127;-54
2022/10/23 04:23:24;;;;;;;9.38;6.18;;;;;;;9.78;100.00;99270.56;4883344;29;20047;-52
2022/10/23 04:26:08;;;;;;;8.98;5.82;;;;;;;9.76;100.00;99275.06;4887493;29;20338;-54
2022/10/23 04:28:53;;;;;;;8.02;6.30;;;;;;;9.66;100.00;99272.13;4900450;29;20068;-56
2022/10/23 04:31:38;;;;;;;9.15;6.88;;;;;;;9.33;100.00;99261.69;4901218;29;20075;-56
2022/10/23 04:34:22;;;;;;;11.93;7.00;;;;;;;9.31;100.00;99266.16;4899050;29;20040;-55
2022/10/23 04:37:10;;;;;;;9.35;6.22;;;;;;;9.42;100.00;99268.16;4887727;29;20048;-55
2022/10/23 04:39:56;;;;;;;11.25;6.80;;;;;;;9.44;100.00;99265.47;4898930;29;20490;-52
2022/10/23 04:42:41;;;;;;;11.15;7.22;;;;;;;9.58;100.00;99267.34;4898278;29;20036;-52
2022/10/23 04:45:26;;;;;;;10.15;6.68;;;;;;;9.56;100.00;99272.66;4884730;29;20084;-56
2022/10/23 04:48:10;;;;;;;11.27;6.85;;;;;;;9.44;100.00;99271.56;4871751;29;20053;-52
2022/10/23 04:51:30;;;;;;;9.73;6.63;;;;;;;9.40;100.00;99267.41;4898512;29;20136;-59
2022/10/23 04:54:36;;;;;;;9.70;7.03;;;;;;;9.29;100.00;99261.94;4894415;29;20080;-51
2022/10/23 04:57:44;;;;;;;21.90;7.75;;;;;;;8.40;100.00;99267.44;4874648;29;20125;-50
2022/10/23 05:00:29;;;;;;;14.82;8.52;;;;;;;8.61;100.00;99275.09;4886432;29;20048;-56
2022/10/23 05:03:17;;;;;;;13.55;7.90;;;;;;;8.75;100.00;99276.97;4883075;29;20052;-55
2022/10/23 05:06:02;;;;;;;15.77;9.32;;;;;;;8.87;100.00;99280.72;4894125;29;20104;-55
2022/10/23 05:09:09;;;;;;;13.90;8.63;;;;;;;8.81;100.00;99279.28;4899085;29;20051;-54
2022/10/23 05:12:09;;;;;;;19.05;10.65;;;;;;;8.86;100.00;99274.63;4897970;29;20055;-55
2022/10/23 05:14:54;;;;;;;21.35;10.48;;;;;;;8.52;100.00;99270.34;4886001;29;20129;-59
2022/10/23 05:17:42;;;;;;;25.00;11.07;;;;;;;8.23;100.00;99273.50;4897366;29;20044;-54
2022/10/23 05:20:34;;;;;;;16.75;9.95;;;;;;;8.24;100.00;99281.25;4898132;29;20092;-53
2022/10/23 05:23:23;;;;;;;17.58;10.13;;;;;;;8.32;100.00;99280.03;4898866;29;20124;-56
2022/10/23 05:26:18;;;;;;;26.25;11.88;;;;;;;8.24;100.00;99281.25;4890011;29;20049;-54
2022/10/23 05:29:05;;;;;;;25.17;11.40;;;;;;;8.06;100.00;99282.19;4896923;29;20052;-57
2022/10/23 05:31:55;;;;;;;21.45;10.82;;;;;;;8.18;100.00;99280.72;4895126;29;20334;-54
2022/10/23 05:34:41;;;;;;;31.83;11.38;;;;;;;8.07;100.00;99289.94;4879970;29;20048;-50
2022/10/23 05:37:27;;;;;;;26.58;12.02;;;;;;;7.96;100.00;99287.88;4890456;29;20079;-53
2022/10/23 05:40:22;;;;;;;47.67;12.32;;;;;;;7.88;100.00;99290.03;4894662;29;20036;-55
2022/10/23 05:43:11;;;;;;;27.00;11.23;;;;;;;7.96;100.00;99292.25;4892863;29;20052;-52
2022/10/23 05:46:06;;;;;;;64.20;13.40;;;;;;;7.92;100.00;99288.09;4895409;29;20443;-55
2022/10/23 05:49:10;;;;;;;27.15;12.85;;;;;;;7.87;100.00;99286.56;4898848;29;20080;-57
2022/10/23 05:52:10;;;;;;;58.95;15.30;;;;;;;7.76;100.00;99275.81;4896916;29;20127;-55
2022/10/23 05:55:07;;;;;;;42.78;14.88;;;;;;;7.79;100.00;99282.63;4886340;29;20052;-56
2022/10/23 05:58:18;;;;;;;71.80;14.25;;;;;;;7.74;100.00;99277.63;4896914;29;20500;-57
2022/10/23 06:01:24;;;;;;;59.63;14.80;;;;;;;8.04;100.00;99295.31;4885327;29;20048;-58
2022/10/23 06:04:17;;;;;;;26.10;13.23;;;;;;;8.21;100.00;99299.69;4895283;29;20052;-56
2022/10/23 06:07:29;;;;;;;43.93;15.20;;;;;;;8.13;100.00;99307.06;4901187;29;20147;-51
2022/10/23 06:10:15;;;;;;;51.10;14.43;;;;;;;8.45;100.00;99304.59;4869816;29;20398;-55
2022/10/23 06:13:03;;;;;;;36.30;13.13;;;;;;;8.85;100.00;99306.94;4870348;29;20124;-57
2022/10/23 06:15:48;;;;;;;34.95;14.00;;;;;;;8.77;100.00;99305.63;4882111;29;20107;-60
2022/10/23 06:18:38;;;;;;;28.40;14.02;;;;;;;8.80;100.00;99310.69;4898254;29;20049;-59
2022/10/23 06:21:28;;;;;;;25.75;13.80;;;;;;;8.89;100.00;99314.59;4884148;29;20480;-54
2022/10/23 06:24:13;;;;;;;25.65;13.90;;;;;;;8.92;100.00;99307.47;4893413;29;20143;-53
2022/10/23 06:27:11;;;;;;;30.63;13.63;;;;;;;8.78;100.00;99307.34;4893826;29;20049;-52
2022/10/23 06:30:01;;;;;;;46.03;13.68;;;;;;;8.65;100.00;99309.75;4878872;29;20124;-59
2022/10/23 06:32:45;;;;;;;35.90;14.23;;;;;;;8.73;100.00;99316.25;4895787;29;20133;-53
2022/10/23 06:35:30;;;;;;;46.95;13.13;;;;;;;8.50;100.00;99306.97;4896462;29;20136;-54
2022/10/23 06:38:15;;;;;;;24.58;13.35;;;;;;;9.52;100.00;99293.81;4900347;29;20095;-54
2022/10/23 06:41:18;;;;;;;53.17;13.88;;;;;;;8.59;100.00;99310.91;4881796;29;20089;-59
2022/10/23 06:44:07;;;;;;;30.02;12.55;;;;;;;8.34;100.00;99307.75;4893630;29;20048;-52
2022/10/23 06:47:03;;;;;;;43.25;13.82;;;;;;;8.36;100.00;99323.31;4893238;29;20128;-55
2022/10/23 06:50:07;;;;;;;33.88;13.38;;;;;;;8.84;100.00;99325.31;4900579;29;20060;-57
2022/10/23 06:52:52;;;;;;;48.72;15.07;;;;;;;8.60;100.00;99326.50;4897806;29;20056;-58
2022/10/23 06:55:40;;;;;;;37.03;14.52;;;;;;;8.55;100.00;99320.66;4894393;29;20083;-56
2022/10/23 06:58:27;;;;;;;26.65;12.50;;;;;;;8.63;100.00;99326.31;4873593;29;20048;-53
2022/10/23 07:01:21;;;;;;;34.60;15.07;;;;;;;8.61;100.00;99317.75;4882062;29;20611;-56
2022/10/23 07:04:05;;;;;;;27.90;15.18;;;;;;;8.73;100.00;99313.63;4890384;29;20251;-56
2022/10/23 07:06:50;;;;;;;28.52;14.60;;;;;;;8.73;100.00;99308.41;4898705;29;20060;-54
2022/10/23 07:09:41;;;;;;;48.92;15.35;;;;;;;8.88;100.00;99300.69;4889676;29;20132;-54
2022/10/23 07:12:47;;;;;;;26.23;13.95;;;;;;;8.88;100.00;99290.22;4891408;29;20121;-53
2022/10/23 07:15:58;;;;;;;30.45;14.43;;;;;;;8.74;100.00;99289.22;4898153;29;20049;-56
2022/10/23 07:18:46;;;;;;;21.92;13.18;;;;;;;8.98;100.00;99303.66;4886583;29;20052;-55
2022/10/23 07:21:57;;;;;;;;;;;;;;;9.40;100.00;99308.44;4896833;29;20048;-53
2022/10/23 07:25:24;;;;;;;21.83;13.75;;;;;;;9.69;100.00;99300.72;4898644;29;20380;-55
2022/10/23 07:28:10;;;;;;;20.55;13.07;;;;;;;9.98;100.00;99303.44;4903716;29;20071;-57
2022/10/23 07:30:57;;;;;;;20.52;12.27;;;;;;;10.01;100.00;99305.88;4881894;29;20607;-55
2022/10/23 07:33:43;;;;;;;18.45;12.10;;;;;;;9.86;100.00;99302.38;4873479;29;21470;-54
2022/10/23 07:36:33;;;;;;;21.42;13.18;;;;;;;9.80;100.00;99300.97;4883292;29;20144;-52
2022/10/23 07:39:18;;;;;;;19.50;12.48;;;;;;;10.19;100.00;99301.38;4887618;29;20067;-53
2022/10/23 07:42:09;;;;;;;17.13;11.52;;;;;;;10.42;100.00;99296.53;4882383;29;20131;-57
2022/10/23 07:44:53;;;;;;;19.15;11.82;;;;;;;10.52;100.00;99286.41;4885775;29;20625;-57
2022/10/23 07:47:38;;;;;;;17.08;10.90;;;;;;;10.74;100.00;99294.75;4897144;29;20076;-58
2022/10/23 07:50:24;;;;;;;14.65;9.98;;;;;;;11.50;100.00;99287.41;4878705;29;20048;-56
2022/10/23 07:53:27;;;;;;;20.67;10.73;;;;;;;11.66;100.00;99283.78;4901990;29;20044;-58
2022/10/23 07:56:23;;;;;;;17.92;10.68;;;;;;;12.07;100.00;99288.13;4897148;29;20048;-55
2022/10/23 07:59:26;;;;;;;14.30;9.32;;;;;;;12.24;100.00;99288.78;4901936;29;20108;-54
2022/10/23 08:02:14;;;;;;;17.27;9.73;;;;;;;12.79;100.00;99288.59;4904608;29;20048;-54
2022/10/23 08:04:59;;;;;;;14.43;9.25;;;;;;;13.19;100.00;99286.72;4905169;29;20059;-55
2022/10/23 08:07:51;;;;;;;13.30;8.32;;;;;;;13.51;98.72;99286.22;4907788;29;20933;-56
2022/10/23 08:10:35;;;;;;;13.60;8.35;;;;;;;13.71;96.06;99288.34;4887072;29;20032;-57
2022/10/23 08:13:20;;;;;;;11.60;7.93;;;;;;;14.09;93.51;99294.34;4911328;29;20040;-55
2022/10/23 08:16:10;;;;;;;11.40;7.50;;;;;;;14.59;91.02;99290.63;4899690;29;20699;-55
2022/10/23 08:19:24;;;;;;;12.90;7.78;;;;;;;15.15;86.23;99297.72;4901328;29;20135;-58
2022/10/23 08:22:11;;;;;;;13.13;6.97;;;;;;;15.28;85.53;99304.66;4881611;29;20063;-54
2022/10/23 08:24:56;;;;;;;9.23;6.30;;;;;;;15.33;84.67;99304.28;4903146;29;20048;-54
2022/10/23 08:27:42;;;;;;;10.68;7.13;;;;;;;15.25;84.50;99310.19;4906068;29;20080;-57
2022/10/23 08:30:27;;;;;;;11.85;7.35;;;;;;;15.77;83.20;99307.78;4896772;29;20064;-57
2022/10/23 08:33:13;;;;;;;12.93;8.38;;;;;;;15.39;84.09;99312.56;4899231;29;20064;-58
2022/10/23 08:35:57;;;;;;;10.52;7.63;;;;;;;14.73;87.37;99315.91;4907273;29;20040;-57
2022/10/23 08:38:48;;;;;;;10.98;7.10;;;;;;;14.38;89.78;99312.38;4910327;29;20184;-55
2022/10/23 08:41:41;;;;;;;13.57;7.85;;;;;;;14.26;90.96;99303.63;4896393;29;20045;-55
2022/10/23 08:44:44;;;;;;;13.27;8.38;;;;;;;14.03;91.94;99299.16;4912668;29;20052;-58
2022/10/23 08:47:40;;;;;;;12.65;8.10;;;;;;;14.13;90.90;99298.44;4914692;29;20158;-62
2022/10/23 08:51:05;;;;;;;16.65;9.55;;;;;;;14.02;92.37;99307.13;4857094;29;20080;-59
2022/10/23 08:53:58;;;;;;;17.88;9.77;;;;;;;14.15;93.26;99307.91;4854629;29;20084;-56
2022/10/23 08:56:54;;;;;;;17.08;10.45;;;;;;;14.08;92.17;99316.38;4869223;29;20053;-58
2022/10/23 08:59:43;;;;;;;24.15;13.45;;;;;;;13.34;95.23;99326.03;4854055;29;20059;-59
2022/10/23 09:02:41;;;;;;;28.73;14.82;;;;;;;13.43;95.93;99320.94;4856169;29;20068;-55
2022/10/23 09:05:33;;;;;;;30.15;15.07;;;;;;;13.17;98.67;99320.19;4849890;29;20152;-57
2022/10/23 09:09:05;;;;;;;28.40;14.82;;;;;;;12.72;99.96;99315.38;4857015;29;20076;-58
2022/10/23 09:11:53;;;;;;;27.13;13.68;;;;;;;12.32;100.00;99306.66;4759878;30;20541;-55
2022/10/23 09:14:52;;;;;;;25.63;13.90;;;;;;;12.50;100.00;99309.81;4756632;30;20104;-55
2022/10/23 09:17:40;;;;;;;19.52;11.13;;;;;;;12.74;100.00;99319.63;4755739;30;20102;-61
2022/10/23 09:20:33;;;;;;;23.20;15.07;;;;;;;12.41;100.00;99308.66;4757221;30;20055;-56
2022/10/23 09:23:21;;;;;;;25.27;15.40;;;;;;;12.15;100.00;99306.00;4755876;30;20461;-58
2022/10/23 09:26:16;;;;;;;24.40;13.90;;;;;;;11.88;100.00;99304.22;4754836;30;20883;-54
2022/10/23 09:29:23;;;;;;;22.17;14.07;;;;;;;11.65;100.00;99296.06;4761270;29;20064;-56
2022/10/23 09:32:08;;;;;;;22.40;13.20;;;;;;;11.62;100.00;99291.00;4775030;29;20099;-53
2022/10/23 09:34:54;;;;;;;20.92;12.93;;;;;;;11.86;100.00;99303.50;4773373;29;20207;-58
2022/10/23 09:37:47;;;;;;;20.45;12.30;;;;;;;12.24;100.00;99298.47;4772853;29;20055;-56
2022/10/23 09:40:42;;;;;;;19.40;12.70;;;;;;;12.02;100.00;99303.31;4777262;29;20103;-61
2022/10/23 09:43:28;;;;;;;56.60;21.52;;;;;;;12.48;100.00;99303.00;4760310;29;20143;-54
2022/10/23 09:46:19;;;;;;;30.20;15.07;;;;;;;12.42;100.00;99296.38;4754902;29;20059;-57
2022/10/23 09:49:04;;;;;;;79.05;22.83;;;;;;;11.72;100.00;99285.19;4869815;29;20706;-59
2022/10/23 09:52:00;;;;;;;21.98;13.68;;;;;;;11.81;100.00;99288.06;4893152;29;20463;-57
2022/10/23 09:54:50;;;;;;;19.90;12.85;;;;;;;11.59;100.00;99288.59;4891572;29;20055;-53
2022/10/23 09:57:40;;;;;;;18.95;12.98;;;;;;;11.45;100.00;99281.63;4894804;29;20112;-58
2022/10/23 10:00:26;;;;;;;22.88;12.75;;;;;;;12.16;100.00;99280.56;4898387;29;20040;-58
2022/10/23 10:03:21;;;;;;;20.58;12.00;;;;;;;11.46;100.00;99272.78;4892949;29;20093;-56
2022/10/23 10:06:30;;;;;;;18.08;11.93;;;;;;;11.31;100.00;99264.16;4892875;29;20111;-57
2022/10/23 10:09:16;;;;;;;20.05;12.88;;;;;;;11.49;100.00;99263.91;4882617;29;20155;-56
2022/10/23 10:12:20;;;;;;;46.95;19.15;;;;;;;12.49;100.00;99260.84;4892620;29;20060;-62
2022/10/23 10:15:16;;;;;;;82.63;27.05;;;;;;;15.91;100.00;99252.97;4882278;29;20048;-63
2022/10/23 10:18:24;;;;;;;42.70;18.45;;;;;;;16.54;92.79;99253.91;4895257;29;20504;-62
2022/10/23 10:21:24;;;;;;;37.80;17.38;;;;;;;17.57;90.63;99242.34;4893729;29;20151;-66
2022/10/23 10:24:19;;;;;;;33.03;15.35;;;;;;;16.52;82.22;99241.81;4897642;29;20048;-60
2022/10/23 10:27:21;;;;;;;29.08;14.63;;;;;;;15.81;89.13;99242.31;4877774;29;20131;-70
2022/10/23 10:30:23;;;;;;;18.83;12.85;;;;;;;14.93;86.63;99242.34;4887162;29;20119;-55
2022/10/23 10:33:21;;;;;;;21.23;12.40;;;;;;;13.82;92.16;99237.53;4908353;29;20421;-56
2022/10/23 10:36:26;;;;;;;30.50;13.38;;;;;;;14.25;96.87;99250.06;4903481;29;20055;-56
2022/10/23 10:39:40;;;;;;;17.52;10.43;;;;;;;14.08;92.13;99247.91;4901623;29;20072;-57
2022/10/23 10:42:54;;;;;;;15.70;10.45;;;;;;;13.58;93.76;99239.22;4845067;29;20065;-57
2022/10/23 10:46:02;;;;;;;13.95;9.50;;;;;;;13.27;96.99;99246.69;4800101;29;20529;-62
2022/10/23 10:49:07;;;;;;;15.85;9.52;;;;;;;13.88;95.00;99240.53;4793231;29;20064;-61
2022/10/23 10:52:24;;;;;;;14.18;9.35;;;;;;;13.28;97.09;99230.81;4819385;29;20134;-58
2022/10/23 10:55:14;;;;;;;17.02;11.20;;;;;;;13.28;99.49;99232.59;4820505;29;20184;-59
2022/10/23 10:58:09;;;;;;;18.38;11.50;;;;;;;12.25;100.00;99226.59;4818371;29;20054;-60
2022/10/23 11:00:57;;;;;;;33.50;10.70;;;;;;;12.16;100.00;99236.78;4819890;29;20090;-61
2022/10/23 11:03:51;;;;;;;17.83;11.05;;;;;;;12.56;100.00;99227.09;4819574;29;20153;-56
2022/10/23 11:06:36;;;;;;;16.77;11.00;;;;;;;11.92;100.00;99220.84;4807067;29;20137;-55
2022/10/23 11:09:28;;;;;;;14.45;9.90;;;;;;;13.10;100.00;99226.88;4807358;29;20059;-52
2022/10/23 11:12:19;;;;;;;13.57;9.27;;;;;;;14.74;91.79;99212.09;4820102;29;20073;-54
2022/10/23 11:15:11;;;;;;;15.25;9.70;;;;;;;13.52;94.76;99210.72;4807466;29;20163;-57
2022/10/23 11:18:02;;;;;;;13.98;9.40;;;;;;;13.75;100.00;99203.75;4819098;29;20064;-47
2022/10/23 11:21:07;;;;;;;13.30;9.20;;;;;;;14.15;93.10;99199.06;4788163;29;20507;-53
2022/10/23 11:24:29;;;;;;;15.20;9.75;;;;;;;14.34;91.55;99202.91;4853468;29;20050;-56
2022/10/23 11:27:44;;;;;;;13.25;8.82;;;;;;;13.24;94.21;99208.31;4854111;29;20061;-54
2022/10/23 11:31:02;;;;;;;13.90;9.10;;;;;;;12.13;100.00;99196.72;4839998;29;20452;-64
2022/10/23 11:33:50;;;;;;;16.20;9.63;;;;;;;11.92;100.00;99192.81;4855064;29;20041;-57
2022/10/23 11:36:41;;;;;;;15.05;10.35;;;;;;;11.37;100.00;99192.91;4799292;29;20051;-60
2022/10/23 11:39:33;;;;;;;16.60;11.82;;;;;;;11.53;100.00;99189.28;4775284;29;20586;-58
2022/10/23 11:42:38;;;;;;;14.68;10.68;;;;;;;11.49;100.00;99182.56;4785097;29;20050;-61
2022/10/23 11:45:31;;;;;;;14.20;10.50;;;;;;;11.16;100.00;99172.38;4796221;29;20059;-60
2022/10/23 11:48:16;;;;;;;14.43;9.82;;;;;;;11.02;100.00;99175.88;4774126;29;20051;-61
2022/10/23 11:51:03;;;;;;;16.33;11.23;;;;;;;11.17;100.00;99173.22;4775163;29;20607;-57
2022/10/23 11:53:48;;;;;;;15.88;10.02;;;;;;;11.39;100.00;99177.09;4771147;29;20590;-59
2022/10/23 11:56:33;;;;;;;14.35;10.18;;;;;;;11.01;100.00;99176.00;4796210;29;20058;-58
2022/10/23 11:59:30;;;;;;;14.82;10.70;;;;;;;10.98;100.00;99160.47;4853457;29;20849;-61
2022/10/23 12:02:31;;;;;;;18.15;12.00;;;;;;;10.87;100.00;99159.34;4839754;29;20093;-61
2022/10/23 12:05:39;;;;;;;17.23;11.50;;;;;;;11.52;100.00;99159.56;4840238;29;20098;-56
2022/10/23 12:08:28;;;;;;;16.48;10.52;;;;;;;11.88;100.00;99162.44;4875404;29;20052;-60
2022/10/23 12:11:28;;;;;;;13.20;8.80;;;;;;;11.92;100.00;99160.47;4897662;29;20665;-63
2022/10/23 12:14:47;;;;;;;17.90;12.15;;;;;;;11.73;100.00;99155.63;4900388;29;20099;-61
2022/10/23 12:17:36;;;;;;;20.95;13.63;;;;;;;11.50;100.00;99147.50;4884856;29;20067;-60
2022/10/23 12:20:35;;;;;;;20.05;11.98;;;;;;;11.37;100.00;99142.22;4895215;29;20067;-58
2022/10/23 12:23:30;;;;;;;15.57;10.73;;;;;;;12.04;100.00;99130.75;4894580;29;20135;-57
2022/10/23 12:26:34;;;;;;;17.92;10.93;;;;;;;11.37;100.00;99129.97;4909472;29;20048;-59
2022/10/23 12:29:39;;;;;;;14.25;9.65;;;;;;;11.43;100.00;99119.06;4893832;29;20057;-60
2022/10/23 12:33:06;;;;;;;19.02;12.82;;;;;;;11.37;100.00;99114.22;4895372;29;20159;-60
2022/10/23 12:36:13;;;;;;;17.27;10.95;;;;;;;13.12;100.00;99106.63;4896461;29;20063;-57
2022/10/23 12:38:57;;;;;;;21.90;14.10;;;;;;;12.40;100.00;99090.72;4910297;29;20503;-60
2022/10/23 12:41:43;;;;;;;20.13;13.30;;;;;;;11.69;100.00;99092.84;4903918;29;20040;-57
2022/10/23 12:44:29;;;;;;;20.38;13.25;;;;;;;11.61;100.00;99096.94;4898504;29;20051;-61
2022/10/23 12:47:21;;;;;;;25.52;15.65;;;;;;;11.51;100.00;99094.09;4895634;29;20052;-54
2022/10/23 12:50:21;;;;;;;28.65;16.38;;;;;;;11.55;100.00;99085.06;4897588;29;20094;-60
2022/10/23 12:53:07;;;;;;;29.83;17.58;;;;;;;11.53;100.00;99073.84;4899730;29;20128;-56
2022/10/23 12:56:03;;;;;;;31.10;18.58;;;;;;;11.56;100.00;99065.75;4911820;29;20083;-54
2022/10/23 12:58:51;;;;;;;33.63;18.52;;;;;;;11.64;100.00;99057.34;4893999;29;20552;-59
2022/10/23 13:01:36;;;;;;;35.28;18.13;;;;;;;11.63;100.00;99059.16;4897653;29;20052;-54
2022/10/23 13:04:29;;;;;;;36.38;21.10;;;;;;;11.53;100.00;99058.94;4901478;29;20071;-55
2022/10/23 13:07:14;;;;;;;29.20;18.75;;;;;;;11.44;100.00;99062.19;4896399;29;20089;-57
2022/10/23 13:10:00;;;;;;;33.35;19.67;;;;;;;11.60;100.00;99058.53;4899586;29;20048;-58
2022/10/23 13:13:03;;;;;;;33.10;20.00;;;;;;;11.52;100.00;99053.81;4890479;29;20186;-55
2022/10/23 13:15:48;;;;;;;28.98;17.95;;;;;;;12.96;100.00;99056.94;4897472;29;20120;-52
2022/10/23 13:18:40;;;;;;;29.88;19.70;;;;;;;11.81;100.00;99048.34;4899360;29;20048;-56